This is the latest recevied weather packets stored in our database for station/object OH2EGI-2. If no packets are shown the sender has not sent any weather packets the latest 10 day(s).
| Time | Temp. | Humidity | Pressure | Rain* | Wind** | Luminosity | Snow |
|---|---|---|---|---|---|---|---|
| 1777616813 | 21.11° C | 47% | 1012.7 hPa | 0 mm | - | - | - |
| 1777616513 | 21.11° C | 46% | 1012.7 hPa | 0 mm | - | - | - |
| 1777616213 | 21.67° C | 46% | 1012.8 hPa | 0 mm | - | - | - |
| 1777615913 | 21.11° C | 48% | 1012.8 hPa | 0 mm | - | - | - |
| 1777615613 | 20.56° C | 50% | 1012.8 hPa | 0 mm | - | - | - |
| 1777615313 | 20.56° C | 50% | 1012.8 hPa | 0 mm | - | - | - |
| 1777615013 | 20.56° C | 51% | 1012.7 hPa | 0 mm | - | - | - |
| 1777614713 | 20° C | 52% | 1012.8 hPa | 0 mm | - | - | - |
| 1777614413 | 20° C | 55% | 1012.7 hPa | 0 mm | - | - | - |
| 1777614113 | 19.44° C | 57% | 1012.7 hPa | 0 mm | - | - | - |
| 1777613813 | 18.33° C | 61% | 1012.7 hPa | 0 mm | - | - | - |
| 1777613513 | 17.22° C | 64% | 1012.7 hPa | 0 mm | - | - | - |
| 1777613213 | 15.56° C | 68% | 1012.8 hPa | 0 mm | - | - | - |
| 1777612913 | 14.44° C | 71% | 1012.8 hPa | 0 mm | - | - | - |
| 1777612613 | 13.33° C | 75% | 1012.7 hPa | 0 mm | - | - | - |
| 1777612313 | 12.22° C | 75% | 1012.7 hPa | 0 mm | - | - | - |
| 1777612013 | 11.11° C | 76% | 1012.8 hPa | 0 mm | - | - | - |
| 1777611713 | 10.56° C | 75% | 1012.8 hPa | 0 mm | - | - | - |
| 1777611413 | 9.44° C | 75% | 1012.8 hPa | 0 mm | - | - | - |
| 1777611113 | 8.89° C | 75% | 1012.8 hPa | 0 mm | - | - | - |
| 1777610813 | 8.33° C | 75% | 1012.8 hPa | 0 mm | - | - | - |
| 1777610513 | 8.33° C | 73% | 1012.9 hPa | 0 mm | - | - | - |
| 1777610213 | 7.78° C | 72% | 1012.9 hPa | 0 mm | - | - | - |
| 1777609913 | 7.78° C | 72% | 1012.9 hPa | 0 mm | - | - | - |
| 1777609613 | 7.22° C | 73% | 1012.9 hPa | 0 mm | - | - | - |
* Rain latest hour (hover to see other rain measurements)
** Current wind speed in m/s (hover to see current wind gust speed)